Time;durP1;ratioP1;P1;durP2;ratioP2;P2;SDS_P1;SDS_P2;PMS_P1;PMS_P2;Temp;Humidity;BMP_temperature;BMP_pressure;BME280_temperature;BME280_humidity;BME280_pressure;Samples;Min_cycle;Max_cycle;Signal;HPM_P1;HPM_P2
2022/07/30 00:00:00;;;;;;;19.42;8.50;;;;;;;;;;5036559;28;20021;-83
2022/07/30 00:02:26;;;;;;;14.38;8.25;;;;;;;;;;5051632;28;20025;-83
2022/07/30 00:04:52;;;;;;;14.25;7.88;;;;;;;;;;5036380;28;20029;-83
2022/07/30 00:07:18;;;;;;;19.17;9.63;;;;;;;;;;5036327;28;20025;-83
2022/07/30 00:09:44;;;;;;;16.80;8.95;;;;;;;;;;5036199;28;20060;-83
2022/07/30 00:12:10;;;;;;;24.80;8.38;;;;;;;;;;5034956;28;20045;-83
2022/07/30 00:14:37;;;;;;;15.45;8.75;;;;;;;;;;5036182;28;20025;-83
2022/07/30 00:17:04;;;;;;;16.17;8.02;;;;;;;;;;5036649;28;20467;-83
2022/07/30 00:19:30;;;;;;;14.90;8.55;;;;;;;;;;5034775;28;20017;-83
2022/07/30 00:21:56;;;;;;;18.38;9.48;;;;;;;;;;5036036;28;20057;-83
2022/07/30 00:24:22;;;;;;;18.35;8.20;;;;;;;;;;5036265;28;20030;-83
2022/07/30 00:26:48;;;;;;;16.60;8.50;;;;;;;;;;5034532;28;20028;-83
2022/07/30 00:29:14;;;;;;;17.05;9.20;;;;;;;;;;5032093;28;20025;-83
2022/07/30 00:31:40;;;;;;;19.17;9.90;;;;;;;;;;5016353;28;20022;-83
2022/07/30 00:34:06;;;;;;;20.73;7.47;;;;;;;;;;5014635;28;20173;-83
2022/07/30 00:36:33;;;;;;;23.67;8.35;;;;;;;;;;5015816;28;20476;-83
2022/07/30 00:38:59;;;;;;;16.15;7.53;;;;;;;;;;5015976;28;20097;-83
2022/07/30 00:41:25;;;;;;;13.13;6.93;;;;;;;;;;5016099;28;20037;-83
2022/07/30 00:43:52;;;;;;;16.65;7.35;;;;;;;;;;5015787;28;20862;-83
2022/07/30 00:46:18;;;;;;;11.45;6.85;;;;;;;;;;5015812;28;20539;-83
2022/07/30 00:48:44;;;;;;;18.42;7.28;;;;;;;;;;5015016;28;20058;-83
2022/07/30 00:51:11;;;;;;;13.85;7.38;;;;;;;;;;5015595;28;20033;-83
2022/07/30 00:53:37;;;;;;;16.85;7.40;;;;;;;;;;5014281;28;20022;-83
2022/07/30 00:56:03;;;;;;;11.82;6.60;;;;;;;;;;5015671;28;20028;-83
2022/07/30 00:58:29;;;;;;;13.15;8.00;;;;;;;;;;5015734;28;20100;-83
2022/07/30 01:00:55;;;;;;;14.55;7.53;;;;;;;;;;5014698;28;20018;-84
2022/07/30 01:03:21;;;;;;;13.75;7.35;;;;;;;;;;5015561;28;20022;-83
2022/07/30 01:05:48;;;;;;;12.50;6.45;;;;;;;;;;5015585;28;20025;-82
2022/07/30 01:08:15;;;;;;;15.38;7.32;;;;;;;;;;5031906;28;20049;-83
2022/07/30 01:10:41;;;;;;;13.68;6.50;;;;;;;;;;5035110;28;20029;-84
2022/07/30 01:13:07;;;;;;;16.25;7.75;;;;;;;;;;5035564;28;20356;-83
2022/07/30 01:15:34;;;;;;;17.75;7.05;;;;;;;;;;5034966;28;20375;-83
2022/07/30 01:18:02;;;;;;;12.60;6.15;;;;;;;;;;5033684;28;20053;-83
2022/07/30 01:20:34;;;;;;;14.50;7.00;;;;;;;;;;5015224;28;20018;-83
2022/07/30 01:23:20;;;;;;;18.88;7.25;;;;;;;;;;5015407;28;20480;-83
2022/07/30 01:25:52;;;;;;;18.75;7.80;;;;;;;;;;5030167;28;20077;-83
2022/07/30 01:28:21;;;;;;;17.20;7.57;;;;;;;;;;5015043;28;20029;-82
2022/07/30 01:30:48;;;;;;;12.88;8.68;;;;;;;;;;5015339;28;20045;-83
2022/07/30 01:33:14;;;;;;;15.70;7.95;;;;;;;;;;5015027;28;20033;-82
2022/07/30 01:35:42;;;;;;;17.92;7.50;;;;;;;;;;5029947;28;20072;-83
2022/07/30 01:38:10;;;;;;;13.02;7.97;;;;;;;;;;5030053;28;20449;-83
2022/07/30 01:40:37;;;;;;;11.55;7.03;;;;;;;;;;5014768;28;20101;-83
2022/07/30 01:43:04;;;;;;;14.15;7.18;;;;;;;;;;5014910;28;20029;-83
2022/07/30 01:45:31;;;;;;;14.82;7.07;;;;;;;;;;5014730;28;20483;-82
2022/07/30 01:48:01;;;;;;;13.82;7.90;;;;;;;;;;5029800;28;20022;-83
2022/07/30 01:50:28;;;;;;;17.33;7.78;;;;;;;;;;5014641;28;20029;-83
2022/07/30 01:52:54;;;;;;;14.07;7.57;;;;;;;;;;5014742;28;20041;-82
2022/07/30 01:55:33;;;;;;;12.10;6.53;;;;;;;;;;5030080;28;20052;-82
2022/07/30 01:58:00;;;;;;;19.75;8.15;;;;;;;;;;5034282;28;20114;-81
2022/07/30 02:00:26;;;;;;;16.27;7.95;;;;;;;;;;5033942;28;20375;-81
2022/07/30 02:02:53;;;;;;;17.90;7.63;;;;;;;;;;5034190;28;20044;-81
2022/07/30 02:05:19;;;;;;;12.98;8.27;;;;;;;;;;5034143;28;20086;-81
2022/07/30 02:07:58;;;;;;;15.45;8.07;;;;;;;;;;5049680;28;20111;-81
2022/07/30 02:10:30;;;;;;;14.98;6.47;;;;;;;;;;5033858;28;20036;-82
2022/07/30 02:12:59;;;;;;;16.10;7.45;;;;;;;;;;5049056;28;20691;-81
2022/07/30 02:15:28;;;;;;;13.75;8.15;;;;;;;;;;5033572;28;20104;-82
2022/07/30 02:18:01;;;;;;;13.50;6.85;;;;;;;;;;5034565;28;20040;-81
2022/07/30 02:20:28;;;;;;;17.67;7.57;;;;;;;;;;5033887;28;20041;-81
2022/07/30 02:22:56;;;;;;;12.00;6.50;;;;;;;;;;5033988;28;20037;-81
2022/07/30 02:25:23;;;;;;;11.70;7.38;;;;;;;;;;5034369;28;20026;-82
2022/07/30 02:27:51;;;;;;;15.90;7.57;;;;;;;;;;5033734;28;20021;-82
2022/07/30 02:30:18;;;;;;;15.68;7.20;;;;;;;;;;5033647;28;20450;-81
2022/07/30 02:32:44;;;;;;;11.75;7.10;;;;;;;;;;5033886;28;20464;-82
2022/07/30 02:35:13;;;;;;;17.45;7.10;;;;;;;;;;5048820;28;20053;-81
2022/07/30 02:37:41;;;;;;;14.57;7.93;;;;;;;;;;5048880;28;20444;-81
2022/07/30 02:40:08;;;;;;;12.65;7.18;;;;;;;;;;5048704;28;20116;-81
2022/07/30 02:42:35;;;;;;;13.70;7.13;;;;;;;;;;5048723;28;20033;-81
2022/07/30 02:45:02;;;;;;;17.05;7.65;;;;;;;;;;5033690;28;20051;-81
2022/07/30 02:47:29;;;;;;;13.48;6.97;;;;;;;;;;5049127;28;20022;-81
2022/07/30 02:49:56;;;;;;;15.95;7.80;;;;;;;;;;5048995;28;20395;-81
2022/07/30 02:52:22;;;;;;;16.55;8.27;;;;;;;;;;5033411;28;20083;-81
2022/07/30 02:54:50;;;;;;;12.80;7.22;;;;;;;;;;5033549;28;20053;-81
2022/07/30 02:57:17;;;;;;;12.02;7.85;;;;;;;;;;5033047;28;20067;-81
2022/07/30 02:59:44;;;;;;;14.23;8.30;;;;;;;;;;5033162;28;20025;-81
2022/07/30 03:02:11;;;;;;;11.23;6.95;;;;;;;;;;5033444;28;20163;-81
2022/07/30 03:04:38;;;;;;;11.98;7.38;;;;;;;;;;5032883;28;20488;-81
2022/07/30 03:07:05;;;;;;;16.10;7.40;;;;;;;;;;5048466;28;20116;-82
2022/07/30 03:09:32;;;;;;;14.77;8.15;;;;;;;;;;5033080;28;20375;-81
2022/07/30 03:11:58;;;;;;;15.15;8.18;;;;;;;;;;5033190;28;20029;-81
2022/07/30 03:14:25;;;;;;;17.05;7.38;;;;;;;;;;5032801;28;20022;-81
2022/07/30 03:16:58;;;;;;;15.45;6.72;;;;;;;;;;5033238;28;20124;-81
2022/07/30 03:19:25;;;;;;;12.90;6.80;;;;;;;;;;5037866;28;20064;-81
2022/07/30 03:21:52;;;;;;;11.48;6.68;;;;;;;;;;5011677;28;20057;-82
2022/07/30 03:24:18;;;;;;;17.00;8.32;;;;;;;;;;5013160;28;20125;-81
2022/07/30 03:26:46;;;;;;;13.20;7.43;;;;;;;;;;5017383;28;20060;-81
2022/07/30 03:29:13;;;;;;;13.95;7.22;;;;;;;;;;5015759;28;20033;-81
2022/07/30 03:31:39;;;;;;;18.92;8.63;;;;;;;;;;5017101;28;20089;-81
2022/07/30 03:34:09;;;;;;;14.85;7.05;;;;;;;;;;5017296;28;20066;-81
2022/07/30 03:36:35;;;;;;;13.35;7.25;;;;;;;;;;5016592;28;20128;-81
2022/07/30 03:39:02;;;;;;;13.55;7.43;;;;;;;;;;5017261;28;20021;-81
2022/07/30 03:41:29;;;;;;;18.25;7.63;;;;;;;;;;5017144;28;20045;-82
2022/07/30 03:43:55;;;;;;;14.32;7.60;;;;;;;;;;5017133;28;20352;-81
2022/07/30 03:46:22;;;;;;;11.90;6.97;;;;;;;;;;5017373;28;20026;-81
2022/07/30 03:48:48;;;;;;;76.53;22.98;;;;;;;;;;5016812;28;20514;-82
2022/07/30 03:51:16;;;;;;;21.80;8.95;;;;;;;;;;5017052;28;20037;-81
2022/07/30 03:53:42;;;;;;;16.48;7.72;;;;;;;;;;5017217;28;20018;-81
2022/07/30 03:56:09;;;;;;;13.55;6.57;;;;;;;;;;5023587;28;20032;-81
2022/07/30 03:58:37;;;;;;;17.23;7.90;;;;;;;;;;5051621;28;20072;-81
2022/07/30 04:01:03;;;;;;;10.05;7.10;;;;;;;;;;5051642;28;20390;-82
2022/07/30 04:03:30;;;;;;;40.13;17.30;;;;;;;;;;5036183;28;20028;-82
2022/07/30 04:05:56;;;;;;;34.45;12.85;;;;;;;;;;5036478;28;20033;-81
2022/07/30 04:08:23;;;;;;;28.35;11.02;;;;;;;;;;5036159;28;20029;-81
2022/07/30 04:10:50;;;;;;;17.98;9.43;;;;;;;;;;5036281;28;20025;-81
2022/07/30 04:13:16;;;;;;;18.75;8.25;;;;;;;;;;5036153;28;20100;-81
2022/07/30 04:15:51;;;;;;;22.27;8.80;;;;;;;;;;5051458;28;20033;-81
2022/07/30 04:18:18;;;;;;;40.58;11.52;;;;;;;;;;5036076;28;20022;-81
2022/07/30 04:20:46;;;;;;;27.33;10.55;;;;;;;;;;5051085;28;20048;-81
2022/07/30 04:23:12;;;;;;;16.90;8.48;;;;;;;;;;5036204;28;20021;-81
2022/07/30 04:25:39;;;;;;;10.52;6.95;;;;;;;;;;5051201;28;20032;-81
2022/07/30 04:28:05;;;;;;;11.85;7.07;;;;;;;;;;5035845;28;20033;-81
2022/07/30 04:30:33;;;;;;;19.38;8.15;;;;;;;;;;5021792;28;20101;-81
2022/07/30 04:33:00;;;;;;;18.58;8.50;;;;;;;;;;5015886;28;20062;-81
2022/07/30 04:35:27;;;;;;;16.45;8.60;;;;;;;;;;5014574;28;20042;-81
2022/07/30 04:37:53;;;;;;;23.52;8.90;;;;;;;;;;5015936;28;20097;-81
2022/07/30 04:40:19;;;;;;;11.98;8.38;;;;;;;;;;5015724;28;20088;-81
2022/07/30 04:42:45;;;;;;;14.07;8.52;;;;;;;;;;5014515;28;20025;-81
2022/07/30 04:45:11;;;;;;;18.65;8.98;;;;;;;;;;5015780;28;20384;-81
2022/07/30 04:47:37;;;;;;;20.63;11.27;;;;;;;;;;5016142;28;20026;-81
2022/07/30 04:50:06;;;;;;;17.33;11.82;;;;;;;;;;5015848;28;20105;-81
2022/07/30 04:52:32;;;;;;;21.50;11.43;;;;;;;;;;5015582;28;20033;-81
2022/07/30 04:55:01;;;;;;;17.30;11.55;;;;;;;;;;5014421;28;20077;-81
2022/07/30 04:57:27;;;;;;;23.40;10.98;;;;;;;;;;5015564;28;20393;-81
2022/07/30 04:59:54;;;;;;;19.38;12.30;;;;;;;;;;5015736;28;20487;-81
2022/07/30 05:02:22;;;;;;;19.10;11.23;;;;;;;;;;5015545;28;20025;-81
2022/07/30 05:04:49;;;;;;;17.52;10.13;;;;;;;;;;5015622;28;20433;-81
2022/07/30 05:07:16;;;;;;;20.55;9.98;;;;;;;;;;5015704;28;20034;-81
2022/07/30 05:09:43;;;;;;;15.15;8.55;;;;;;;;;;5015342;28;20022;-81
2022/07/30 05:12:09;;;;;;;12.77;8.45;;;;;;;;;;5013894;28;20033;-81
2022/07/30 05:14:35;;;;;;;16.48;8.93;;;;;;;;;;5015107;28;20072;-81
2022/07/30 05:17:01;;;;;;;16.13;8.93;;;;;;;;;;5015220;28;20569;-81
2022/07/30 05:19:27;;;;;;;29.58;13.38;;;;;;;;;;5025908;28;20021;-81
2022/07/30 05:21:53;;;;;;;22.95;11.50;;;;;;;;;;5050410;28;20021;-82
2022/07/30 05:24:19;;;;;;;16.50;9.18;;;;;;;;;;5035008;28;20025;-82
2022/07/30 05:26:45;;;;;;;18.77;9.75;;;;;;;;;;5050611;28;20025;-81
2022/07/30 05:29:11;;;;;;;17.45;9.70;;;;;;;;;;5050044;28;20027;-81
2022/07/30 05:31:37;;;;;;;17.83;9.38;;;;;;;;;;5034679;28;20021;-82
2022/07/30 05:34:03;;;;;;;19.20;9.50;;;;;;;;;;5050004;28;20060;-81
2022/07/30 05:36:30;;;;;;;16.70;9.10;;;;;;;;;;5034404;28;20092;-82
2022/07/30 05:38:56;;;;;;;17.35;8.48;;;;;;;;;;5034510;28;20028;-81
2022/07/30 05:41:22;;;;;;;21.02;9.45;;;;;;;;;;5034601;28;20408;-81
2022/07/30 05:43:48;;;;;;;18.27;9.07;;;;;;;;;;5034458;28;20468;-81
2022/07/30 05:46:14;;;;;;;15.70;9.10;;;;;;;;;;5049874;28;20137;-81
2022/07/30 05:48:40;;;;;;;19.00;10.40;;;;;;;;;;5033983;28;20052;-81
2022/07/30 05:51:06;;;;;;;14.82;10.20;;;;;;;;;;5034502;28;20131;-81
2022/07/30 05:53:32;;;;;;;19.73;9.85;;;;;;;;;;5049945;28;20459;-81
2022/07/30 05:55:58;;;;;;;17.88;10.25;;;;;;;;;;5049599;28;20404;-81
2022/07/30 05:58:24;;;;;;;22.00;9.50;;;;;;;;;;5034475;28;20061;-81
2022/07/30 06:00:50;;;;;;;21.02;9.80;;;;;;;;;;5034486;28;20025;-81
2022/07/30 06:03:16;;;;;;;19.67;11.40;;;;;;;;;;5034081;28;20079;-82
2022/07/30 06:05:42;;;;;;;22.23;10.98;;;;;;;;;;5049952;28;20033;-81
2022/07/30 06:08:08;;;;;;;17.75;10.07;;;;;;;;;;5034010;28;20021;-81
2022/07/30 06:10:34;;;;;;;13.73;9.65;;;;;;;;;;5049674;28;20036;-81
2022/07/30 06:13:00;;;;;;;13.45;9.32;;;;;;;;;;5033863;28;20109;-81
2022/07/30 06:15:26;;;;;;;17.67;10.05;;;;;;;;;;5034000;28;20041;-81
2022/07/30 06:17:52;;;;;;;16.25;9.43;;;;;;;;;;5033639;28;20144;-81
2022/07/30 06:20:19;;;;;;;16.40;8.98;;;;;;;;;;5033984;28;20025;-81
2022/07/30 06:22:45;;;;;;;18.95;9.20;;;;;;;;;;5032435;28;20404;-82
2022/07/30 06:25:11;;;;;;;21.10;10.13;;;;;;;;;;5032355;28;20029;-81
2022/07/30 06:27:38;;;;;;;12.68;9.13;;;;;;;;;;5033466;28;20032;-81
2022/07/30 06:30:05;;;;;;;14.80;8.27;;;;;;;;;;5032203;28;20550;-81
2022/07/30 06:32:31;;;;;;;18.02;8.10;;;;;;;;;;5033382;28;20033;-81
2022/07/30 06:34:57;;;;;;;15.82;8.30;;;;;;;;;;5032232;28;20050;-81
2022/07/30 06:37:23;;;;;;;17.25;8.40;;;;;;;;;;5034135;28;20044;-83
2022/07/30 06:39:49;;;;;;;17.23;8.35;;;;;;;;;;5032155;28;20044;-82
2022/07/30 06:42:15;;;;;;;15.95;8.50;;;;;;;;;;5031947;28;20490;-82
2022/07/30 06:44:41;;;;;;;13.98;8.25;;;;;;;;;;5033866;28;20471;-82
2022/07/30 06:47:07;;;;;;;12.27;7.95;;;;;;;;;;5031964;28;20116;-82
2022/07/30 06:49:33;;;;;;;20.15;8.65;;;;;;;;;;5031968;28;20022;-83
2022/07/30 06:52:00;;;;;;;14.77;7.95;;;;;;;;;;5033278;28;20026;-82
2022/07/30 06:54:26;;;;;;;15.02;8.73;;;;;;;;;;5033318;28;20094;-82
2022/07/30 06:56:52;;;;;;;15.18;8.23;;;;;;;;;;5033081;28;20436;-82
2022/07/30 06:59:18;;;;;;;12.80;7.68;;;;;;;;;;5032488;28;20380;-82
2022/07/30 07:01:44;;;;;;;16.83;8.05;;;;;;;;;;5031824;28;20032;-82
2022/07/30 07:04:10;;;;;;;15.80;7.97;;;;;;;;;;5032977;28;20021;-82
2022/07/30 07:06:36;;;;;;;15.07;7.07;;;;;;;;;;5031845;28;20456;-83
2022/07/30 07:09:03;;;;;;;12.85;7.28;;;;;;;;;;5032962;28;20043;-82
2022/07/30 07:11:29;;;;;;;13.20;6.25;;;;;;;;;;5032940;28;20036;-81
2022/07/30 07:13:55;;;;;;;13.40;5.30;;;;;;;;;;5031577;28;20036;-81
2022/07/30 07:16:24;;;;;;;12.32;5.10;;;;;;;;;;5032780;28;20113;-81
2022/07/30 07:18:51;;;;;;;11.40;4.93;;;;;;;;;;5026137;28;20025;-82
2022/07/30 07:21:17;;;;;;;14.77;4.70;;;;;;;;;;5013502;28;20046;-81
2022/07/30 07:23:43;;;;;;;21.52;5.03;;;;;;;;;;5012992;28;20026;-81
2022/07/30 07:26:09;;;;;;;10.98;3.97;;;;;;;;;;5011842;28;20030;-81
2022/07/30 07:28:35;;;;;;;8.23;3.70;;;;;;;;;;5013385;28;20017;-81
2022/07/30 07:31:02;;;;;;;7.22;3.85;;;;;;;;;;5013154;28;20468;-81
2022/07/30 07:33:28;;;;;;;8.90;4.13;;;;;;;;;;5011836;28;20140;-81
2022/07/30 07:35:54;;;;;;;11.27;3.80;;;;;;;;;;5012752;28;20077;-82
2022/07/30 07:38:20;;;;;;;10.73;3.90;;;;;;;;;;5024050;28;20034;-83
2022/07/30 07:40:46;;;;;;;10.90;3.38;;;;;;;;;;5032795;28;20025;-82
2022/07/30 07:43:13;;;;;;;13.52;3.83;;;;;;;;;;5031370;28;20025;-82
2022/07/30 07:45:39;;;;;;;18.10;5.60;;;;;;;;;;5032890;28;20029;-82
2022/07/30 07:48:05;;;;;;;8.45;3.20;;;;;;;;;;5032442;28;20496;-82
2022/07/30 07:50:31;;;;;;;13.27;3.70;;;;;;;;;;5032604;28;20108;-82
2022/07/30 07:52:58;;;;;;;13.60;3.70;;;;;;;;;;5032595;28;20380;-82
2022/07/30 07:55:24;;;;;;;6.45;3.30;;;;;;;;;;5031546;28;20040;-82
2022/07/30 07:57:50;;;;;;;7.30;3.10;;;;;;;;;;5012792;28;20029;-81
2022/07/30 08:00:17;;;;;;;8.75;2.38;;;;;;;;;;5011570;28;20045;-81
2022/07/30 08:02:44;;;;;;;14.68;2.50;;;;;;;;;;5014556;28;20014;-82
2022/07/30 08:05:13;;;;;;;8.80;3.10;;;;;;;;;;5032699;28;20091;-82
2022/07/30 08:07:39;;;;;;;9.68;2.80;;;;;;;;;;5032443;28;20030;-81
2022/07/30 08:10:06;;;;;;;4.97;2.20;;;;;;;;;;5032338;28;20029;-82
2022/07/30 08:12:32;;;;;;;7.68;2.80;;;;;;;;;;5036347;28;20026;-81
2022/07/30 08:14:58;;;;;;;6.85;2.13;;;;;;;;;;5035236;28;20029;-83
2022/07/30 08:17:24;;;;;;;5.47;2.22;;;;;;;;;;5036262;28;20348;-82
2022/07/30 08:19:51;;;;;;;10.95;2.60;;;;;;;;;;5034648;28;20026;-81
2022/07/30 08:22:17;;;;;;;4.50;1.77;;;;;;;;;;5035942;28;20123;-82
2022/07/30 08:24:43;;;;;;;5.60;2.05;;;;;;;;;;5036030;28;20014;-82
2022/07/30 08:27:09;;;;;;;7.30;1.65;;;;;;;;;;5035844;28;20071;-82
2022/07/30 08:29:35;;;;;;;7.82;1.85;;;;;;;;;;5031285;28;20033;-81
2022/07/30 08:32:01;;;;;;;6.53;1.63;;;;;;;;;;5015834;28;20022;-77
2022/07/30 08:34:28;;;;;;;14.15;2.00;;;;;;;;;;5024579;28;20041;-79
2022/07/30 08:36:54;;;;;;;8.10;2.50;;;;;;;;;;5035984;28;20460;-79
2022/07/30 08:39:20;;;;;;;5.40;2.00;;;;;;;;;;5035852;28;20096;-79
2022/07/30 08:41:46;;;;;;;9.60;2.40;;;;;;;;;;5035814;28;20049;-79
2022/07/30 08:44:12;;;;;;;7.53;2.40;;;;;;;;;;5034384;28;20102;-82
2022/07/30 08:46:42;;;;;;;9.55;2.30;;;;;;;;;;5036016;28;20064;-80
2022/07/30 08:49:09;;;;;;;5.63;2.20;;;;;;;;;;5034361;28;20353;-76
2022/07/30 08:51:35;;;;;;;5.10;2.40;;;;;;;;;;5035825;28;20025;-79
2022/07/30 08:54:03;;;;;;;10.35;2.17;;;;;;;;;;5035559;28;20033;-79
2022/07/30 08:56:29;;;;;;;5.43;2.35;;;;;;;;;;5035612;28;20030;-78
2022/07/30 08:58:55;;;;;;;7.57;2.03;;;;;;;;;;5035451;28;20025;-78
2022/07/30 09:01:22;;;;;;;5.93;1.98;;;;;;;;;;5035735;28;20033;-78
2022/07/30 09:03:48;;;;;;;5.70;1.70;;;;;;;;;;5035016;28;20427;-78
2022/07/30 09:06:14;;;;;;;6.68;2.08;;;;;;;;;;5035177;28;20061;-78
2022/07/30 09:08:41;;;;;;;20.38;1.90;;;;;;;;;;5034975;28;20033;-78
2022/07/30 09:11:07;;;;;;;2.88;1.70;;;;;;;;;;5035260;28;20475;-78
2022/07/30 09:13:34;;;;;;;4.70;1.92;;;;;;;;;;5033451;28;20112;-78
2022/07/30 09:16:01;;;;;;;6.43;2.63;;;;;;;;;;5033532;28;20148;-78
2022/07/30 09:18:32;;;;;;;4.68;1.73;;;;;;;;;;5031752;28;20459;-77
2022/07/30 09:21:14;;;;;;;5.57;1.73;;;;;;;;;;5014982;28;20033;-78
2022/07/30 09:23:40;;;;;;;7.15;1.98;;;;;;;;;;5014779;28;20056;-77
2022/07/30 09:26:06;;;;;;;8.20;1.77;;;;;;;;;;5015108;28;20034;-77
2022/07/30 09:28:33;;;;;;;7.10;1.42;;;;;;;;;;5015170;28;20040;-78
2022/07/30 09:30:59;;;;;;;6.28;1.40;;;;;;;;;;5015171;28;20064;-78
2022/07/30 09:33:33;;;;;;;6.75;1.42;;;;;;;;;;5013722;28;20117;-77
2022/07/30 09:35:59;;;;;;;2.35;1.42;;;;;;;;;;5014721;28;20472;-78
2022/07/30 09:38:26;;;;;;;6.75;1.73;;;;;;;;;;5014759;28;20029;-78
2022/07/30 09:40:56;;;;;;;3.25;1.40;;;;;;;;;;5013420;28;20033;-77
2022/07/30 09:43:22;;;;;;;12.57;2.45;;;;;;;;;;5014788;28;20069;-78
2022/07/30 09:45:53;;;;;;;4.85;1.67;;;;;;;;;;5014621;28;20030;-77
2022/07/30 09:48:22;;;;;;;6.05;1.80;;;;;;;;;;5014483;28;20022;-78
2022/07/30 09:50:49;;;;;;;11.32;2.75;;;;;;;;;;5014427;28;20018;-78
2022/07/30 09:53:16;;;;;;;6.63;1.85;;;;;;;;;;5014743;28;20018;-79
2022/07/30 09:55:42;;;;;;;6.13;1.73;;;;;;;;;;5024780;28;20033;-77
2022/07/30 09:58:08;;;;;;;9.80;1.85;;;;;;;;;;5034061;28;20109;-77
2022/07/30 10:00:35;;;;;;;8.15;2.30;;;;;;;;;;5033492;28;20022;-77
2022/07/30 10:03:02;;;;;;;7.65;1.95;;;;;;;;;;5034078;28;20017;-77
2022/07/30 10:05:28;;;;;;;5.07;2.15;;;;;;;;;;5033126;28;20072;-77
2022/07/30 10:07:56;;;;;;;6.85;1.50;;;;;;;;;;5033769;28;20447;-78
2022/07/30 10:10:23;;;;;;;3.85;1.52;;;;;;;;;;5033454;28;20117;-77
2022/07/30 10:13:02;;;;;;;4.15;1.48;;;;;;;;;;5031080;28;20036;-76
2022/07/30 10:15:30;;;;;;;7.03;1.40;;;;;;;;;;5013755;28;20030;-79
2022/07/30 10:17:56;;;;;;;4.15;1.60;;;;;;;;;;5020559;28;20017;-76
2022/07/30 10:20:23;;;;;;;6.28;1.33;;;;;;;;;;5033590;28;20113;-78
2022/07/30 10:22:49;;;;;;;8.02;2.47;;;;;;;;;;5033731;28;20028;-78
2022/07/30 10:25:18;;;;;;;3.58;1.38;;;;;;;;;;5033732;28;20036;-79
2022/07/30 10:27:45;;;;;;;5.35;1.50;;;;;;;;;;5033361;28;20428;-78
2022/07/30 10:30:11;;;;;;;9.02;1.60;;;;;;;;;;5029550;28;20078;-78
2022/07/30 10:32:37;;;;;;;4.80;1.35;;;;;;;;;;5033214;28;20540;-79
2022/07/30 10:35:04;;;;;;;4.03;1.80;;;;;;;;;;5032093;28;20100;-79
2022/07/30 10:37:34;;;;;;;6.85;1.80;;;;;;;;;;5033658;28;20025;-79
2022/07/30 10:40:09;;;;;;;3.97;1.77;;;;;;;;;;5033940;28;20053;-78
2022/07/30 10:42:35;;;;;;;5.38;2.10;;;;;;;;;;5033625;28;20032;-79
2022/07/30 10:45:23;;;;;;;5.47;1.70;;;;;;;;;;5031866;28;20096;-78
2022/07/30 10:47:51;;;;;;;5.78;1.73;;;;;;;;;;5033191;28;20080;-79
2022/07/30 10:50:27;;;;;;;3.97;1.52;;;;;;;;;;5033099;28;20018;-78
2022/07/30 10:52:58;;;;;;;3.95;1.70;;;;;;;;;;5033408;28;20447;-78
2022/07/30 10:55:25;;;;;;;4.75;1.70;;;;;;;;;;5031799;28;20044;-78
2022/07/30 10:58:05;;;;;;;9.13;1.80;;;;;;;;;;5032076;28;20071;-79
2022/07/30 11:00:36;;;;;;;4.47;1.98;;;;;;;;;;5033161;28;20018;-79
2022/07/30 11:03:12;;;;;;;5.18;1.75;;;;;;;;;;5034004;28;20022;-79
2022/07/30 11:05:39;;;;;;;8.48;1.98;;;;;;;;;;5033025;28;20527;-80
2022/07/30 11:08:24;;;;;;;4.63;2.00;;;;;;;;;;5032979;28;20499;-79
2022/07/30 11:10:50;;;;;;;5.63;2.10;;;;;;;;;;5048679;28;20033;-80
2022/07/30 11:13:16;;;;;;;5.07;1.95;;;;;;;;;;5033238;28;20021;-80
2022/07/30 11:15:58;;;;;;;6.18;2.50;;;;;;;;;;5032688;28;20022;-79
2022/07/30 11:18:24;;;;;;;;;;;;;;;;;;5024365;28;20547;-79
2022/07/30 11:21:09;;;;;;;5.93;1.98;;;;;;;;;;5048893;28;19992;-80
2022/07/30 11:23:36;;;;;;;7.95;1.83;;;;;;;;;;5041762;28;20502;-80
2022/07/30 11:26:02;;;;;;;6.63;1.80;;;;;;;;;;5031620;28;20022;-80
2022/07/30 11:28:38;;;;;;;3.55;1.85;;;;;;;;;;5032757;28;20526;-81
2022/07/30 11:31:24;;;;;;;4.82;1.58;;;;;;;;;;5033088;28;20109;-81
2022/07/30 11:33:51;;;;;;;7.75;1.30;;;;;;;;;;5031495;28;20042;-81
2022/07/30 11:36:17;;;;;;;6.38;2.50;;;;;;;;;;5032862;28;20041;-81
2022/07/30 11:38:54;;;;;;;9.15;1.60;;;;;;;;;;5032946;28;20026;-81
2022/07/30 11:41:20;;;;;;;3.30;1.10;;;;;;;;;;5033084;28;20056;-80
2022/07/30 11:43:46;;;;;;;9.18;1.60;;;;;;;;;;5031355;28;20072;-79
2022/07/30 11:46:22;;;;;;;6.97;1.30;;;;;;;;;;5035810;28;20034;-79
2022/07/30 11:48:58;;;;;;;7.10;1.77;;;;;;;;;;5035190;28;20032;-80
2022/07/30 11:51:25;;;;;;;8.02;1.55;;;;;;;;;;5036481;28;20061;-80
2022/07/30 11:54:20;;;;;;;4.95;1.45;;;;;;;;;;5035315;28;20546;-79
2022/07/30 11:56:53;;;;;;;4.90;1.70;;;;;;;;;;5026960;28;20033;-81
2022/07/30 11:59:19;;;;;;;4.00;1.40;;;;;;;;;;5035260;28;20049;-79
2022/07/30 12:01:55;;;;;;;4.13;1.58;;;;;;;;;;5036590;28;20021;-79
2022/07/30 12:04:23;;;;;;;4.70;1.65;;;;;;;;;;5036413;28;20024;-80
2022/07/30 12:06:49;;;;;;;4.13;1.60;;;;;;;;;;5036190;28;20026;-80
2022/07/30 12:09:27;;;;;;;2.92;1.52;;;;;;;;;;5036262;28;20357;-79
2022/07/30 12:11:54;;;;;;;4.22;1.48;;;;;;;;;;5036296;28;20084;-82
2022/07/30 12:14:20;;;;;;;6.07;1.65;;;;;;;;;;5036359;28;20484;-83
2022/07/30 12:16:50;;;;;;;3.25;1.25;;;;;;;;;;5034866;28;20025;-83
2022/07/30 12:19:16;;;;;;;2.90;1.17;;;;;;;;;;5034890;28;20014;-82
2022/07/30 12:21:42;;;;;;;5.97;1.00;;;;;;;;;;5036384;28;20353;-82
2022/07/30 12:24:11;;;;;;;3.97;1.40;;;;;;;;;;5034787;28;20060;-83
2022/07/30 12:26:37;;;;;;;6.25;1.58;;;;;;;;;;5034716;28;20025;-82
2022/07/30 12:29:05;;;;;;;5.45;1.33;;;;;;;;;;5035994;28;20107;-83
2022/07/30 12:31:32;;;;;;;5.25;1.42;;;;;;;;;;5036021;28;20104;-81
2022/07/30 12:33:59;;;;;;;4.80;1.48;;;;;;;;;;5036316;28;20034;-83
2022/07/30 12:36:25;;;;;;;1.88;0.93;;;;;;;;;;5020500;28;20050;-83
2022/07/30 12:38:53;;;;;;;3.35;1.33;;;;;;;;;;5030690;28;20353;-82
2022/07/30 12:41:19;;;;;;;3.72;1.40;;;;;;;;;;5035840;28;20022;-82
2022/07/30 12:43:53;;;;;;;4.88;1.88;;;;;;;;;;5036031;28;20024;-81
2022/07/30 12:46:20;;;;;;;4.47;1.30;;;;;;;;;;5035693;28;20053;-82
2022/07/30 12:48:48;;;;;;;4.68;1.23;;;;;;;;;;5035455;28;20460;-79
2022/07/30 12:51:14;;;;;;;8.38;1.50;;;;;;;;;;5035500;28;20065;-80
2022/07/30 12:53:41;;;;;;;3.45;1.55;;;;;;;;;;5035527;28;20083;-80
2022/07/30 12:56:11;;;;;;;4.43;1.05;;;;;;;;;;5034957;28;20060;-80
2022/07/30 12:58:38;;;;;;;5.00;1.30;;;;;;;;;;5035221;28;20028;-81
2022/07/30 13:01:04;;;;;;;4.60;1.00;;;;;;;;;;5035857;28;20036;-83
2022/07/30 13:03:39;;;;;;;4.60;1.20;;;;;;;;;;5035129;28;20026;-83
2022/07/30 13:06:11;;;;;;;3.03;1.00;;;;;;;;;;5035255;28;20033;-81
2022/07/30 13:08:37;;;;;;;;;;;;;;;;;;5034308;28;20430;-81
2022/07/30 13:11:03;;;;;;;4.65;1.10;;;;;;;;;;5035082;28;19905;-82
2022/07/30 13:13:31;;;;;;;5.65;1.23;;;;;;;;;;5035238;28;20510;-82
2022/07/30 13:16:01;;;;;;;3.95;1.20;;;;;;;;;;5020239;28;20079;-82
2022/07/30 13:18:28;;;;;;;2.25;1.00;;;;;;;;;;5034705;28;20510;-81
2022/07/30 13:20:55;;;;;;;6.90;1.15;;;;;;;;;;5035183;28;20391;-81
2022/07/30 13:23:21;;;;;;;3.20;1.17;;;;;;;;;;5034925;28;20024;-81
2022/07/30 13:25:47;;;;;;;4.78;1.00;;;;;;;;;;5034638;28;20105;-82
2022/07/30 13:28:13;;;;;;;5.75;1.60;;;;;;;;;;5033506;28;20049;-82
2022/07/30 13:30:39;;;;;;;4.35;1.27;;;;;;;;;;5034680;28;20431;-83
2022/07/30 13:33:06;;;;;;;24.80;1.95;;;;;;;;;;5033510;28;20056;-83
2022/07/30 13:35:32;;;;;;;9.25;1.30;;;;;;;;;;5034532;28;20496;-82
2022/07/30 13:38:00;;;;;;;5.15;1.17;;;;;;;;;;5034676;28;20108;-82
2022/07/30 13:40:26;;;;;;;5.93;1.40;;;;;;;;;;5033287;28;20021;-83
2022/07/30 13:42:52;;;;;;;10.70;1.17;;;;;;;;;;5033268;28;20116;-84
2022/07/30 13:45:18;;;;;;;3.67;1.10;;;;;;;;;;5033328;28;20021;-83
2022/07/30 13:47:44;;;;;;;2.55;1.15;;;;;;;;;;5034541;28;20208;-83
2022/07/30 13:50:10;;;;;;;2.72;1.23;;;;;;;;;;5034544;28;20432;-84
2022/07/30 13:52:36;;;;;;;2.08;1.10;;;;;;;;;;5034627;28;20108;-85
2022/07/30 13:55:02;;;;;;;3.33;1.00;;;;;;;;;;5033085;28;20427;-84
2022/07/30 13:57:28;;;;;;;1.67;1.00;;;;;;;;;;5032801;28;20044;-86
2022/07/30 13:59:54;;;;;;;3.80;1.15;;;;;;;;;;5032777;28;20052;-85
2022/07/30 14:02:20;;;;;;;4.32;1.10;;;;;;;;;;5032836;28;20040;-86
2022/07/30 14:04:46;;;;;;;6.13;1.10;;;;;;;;;;5032794;28;20468;-86
2022/07/30 14:07:12;;;;;;;3.75;1.02;;;;;;;;;;5029359;28;20030;-84
2022/07/30 14:09:38;;;;;;;3.10;0.93;;;;;;;;;;5027427;28;20076;-84
2022/07/30 14:12:05;;;;;;;5.25;1.02;;;;;;;;;;5034044;28;20029;-84
2022/07/30 14:14:31;;;;;;;6.93;1.17;;;;;;;;;;5034116;28;20026;-84
2022/07/30 14:16:57;;;;;;;5.38;2.03;;;;;;;;;;5032502;28;20032;-83
2022/07/30 14:19:23;;;;;;;5.03;1.33;;;;;;;;;;5034673;28;20017;-84
2022/07/30 14:21:49;;;;;;;3.33;1.27;;;;;;;;;;5032736;28;20329;-84
2022/07/30 14:24:15;;;;;;;2.55;1.02;;;;;;;;;;5033767;28;20025;-84
2022/07/30 14:26:42;;;;;;;5.05;1.35;;;;;;;;;;5034045;28;20026;-82
2022/07/30 14:29:09;;;;;;;2.67;1.10;;;;;;;;;;5033612;28;20037;-84
2022/07/30 14:31:35;;;;;;;5.97;1.38;;;;;;;;;;5031820;28;20440;-82
2022/07/30 14:34:01;;;;;;;2.20;1.15;;;;;;;;;;5037833;28;20072;-83
2022/07/30 14:36:28;;;;;;;3.95;1.10;;;;;;;;;;5031098;28;20500;-82